Time;durP1;ratioP1;P1;durP2;ratioP2;P2;SDS_P1;SDS_P2;PMS_P1;PMS_P2;Temp;Humidity;BMP_temperature;BMP_pressure;BME280_temperature;BME280_humidity;BME280_pressure;Samples;Min_cycle;Max_cycle;Signal;HPM_P1;HPM_P2
2023/08/30 00:01:21;;;;;;;5.90;3.13;;;;;;;;;;4915265;29;20051;-81
2023/08/30 00:03:48;;;;;;;5.60;3.33;;;;;;;;;;4906182;29;20051;-82
2023/08/30 00:06:15;;;;;;;4.55;3.17;;;;;;;;;;4936177;29;20126;-81
2023/08/30 00:08:42;;;;;;;4.22;3.03;;;;;;;;;;4928498;29;20063;-82
2023/08/30 00:11:08;;;;;;;5.28;3.33;;;;;;;;;;4940519;29;20064;-82
2023/08/30 00:13:35;;;;;;;5.72;3.28;;;;;;;;;;4904399;29;20055;-82
2023/08/30 00:16:02;;;;;;;5.30;3.00;;;;;;;;;;4921080;29;20271;-83
2023/08/30 00:18:30;;;;;;;4.45;2.88;;;;;;;;;;4920793;29;20146;-81
2023/08/30 00:20:57;;;;;;;5.70;3.40;;;;;;;;;;4913220;29;20492;-82
2023/08/30 00:23:25;;;;;;;4.35;3.10;;;;;;;;;;4928378;29;20693;-83
2023/08/30 00:25:52;;;;;;;7.50;3.38;;;;;;;;;;4907585;29;20047;-82
2023/08/30 00:28:18;;;;;;;6.38;3.20;;;;;;;;;;4932070;29;20673;-81
2023/08/30 00:30:45;;;;;;;5.45;3.25;;;;;;;;;;4915540;29;20076;-82
2023/08/30 00:33:12;;;;;;;5.07;3.38;;;;;;;;;;4933553;29;20056;-82
2023/08/30 00:35:38;;;;;;;5.30;3.85;;;;;;;;;;4933792;28;20044;-82
2023/08/30 00:38:05;;;;;;;5.38;3.45;;;;;;;;;;4918879;29;20047;-83
2023/08/30 00:40:39;;;;;;;5.88;3.90;;;;;;;;;;4949081;29;20047;-82
2023/08/30 00:43:07;;;;;;;5.32;3.42;;;;;;;;;;4918962;29;20076;-81
2023/08/30 00:45:34;;;;;;;6.20;4.07;;;;;;;;;;4927082;29;20439;-81
2023/08/30 00:48:01;;;;;;;4.88;3.05;;;;;;;;;;4933896;29;20505;-79
2023/08/30 00:50:28;;;;;;;6.22;3.88;;;;;;;;;;4925189;29;20056;-80
2023/08/30 00:52:55;;;;;;;7.50;4.30;;;;;;;;;;4905937;29;20052;-81
2023/08/30 00:55:22;;;;;;;7.57;5.05;;;;;;;;;;4924111;29;20326;-80
2023/08/30 00:57:48;;;;;;;9.15;5.68;;;;;;;;;;4930188;29;20483;-80
2023/08/30 01:00:15;;;;;;;9.57;5.53;;;;;;;;;;4901634;29;20058;-82
2023/08/30 01:02:42;;;;;;;9.15;5.85;;;;;;;;;;4915678;29;20052;-80
2023/08/30 01:05:09;;;;;;;10.65;6.13;;;;;;;;;;4916354;29;20048;-81
2023/08/30 01:07:36;;;;;;;8.85;5.25;;;;;;;;;;4895789;29;20048;-82
2023/08/30 01:10:05;;;;;;;14.27;6.25;;;;;;;;;;4938469;29;20487;-80
2023/08/30 01:12:36;;;;;;;10.23;5.63;;;;;;;;;;4938819;29;20067;-82
2023/08/30 01:15:10;;;;;;;10.90;6.22;;;;;;;;;;4931509;29;20459;-82
2023/08/30 01:17:37;;;;;;;15.27;8.38;;;;;;;;;;4924628;29;20407;-82
2023/08/30 01:20:16;;;;;;;12.45;7.88;;;;;;;;;;4939421;29;20071;-82
2023/08/30 01:22:42;;;;;;;14.98;7.97;;;;;;;;;;4920454;29;20456;-82
2023/08/30 01:25:17;;;;;;;11.63;7.40;;;;;;;;;;4937323;29;20102;-82
2023/08/30 01:27:45;;;;;;;14.77;8.73;;;;;;;;;;4929907;29;20750;-83
2023/08/30 01:30:13;;;;;;;14.05;7.82;;;;;;;;;;4927637;29;20558;-82
2023/08/30 01:32:40;;;;;;;17.30;9.38;;;;;;;;;;4915732;29;20048;-82
2023/08/30 01:35:08;;;;;;;15.82;9.60;;;;;;;;;;4936429;29;20048;-83
2023/08/30 01:37:35;;;;;;;16.50;9.80;;;;;;;;;;4941682;29;20099;-83
2023/08/30 01:40:05;;;;;;;15.85;9.57;;;;;;;;;;4919468;29;20040;-82
2023/08/30 01:42:32;;;;;;;19.48;11.25;;;;;;;;;;4940438;29;20054;-81
2023/08/30 01:45:00;;;;;;;21.88;10.75;;;;;;;;;;4934329;29;21266;-82
2023/08/30 01:47:28;;;;;;;20.08;11.00;;;;;;;;;;4911445;29;20052;-82
2023/08/30 01:49:55;;;;;;;17.90;10.73;;;;;;;;;;4922325;29;20044;-80
2023/08/30 01:52:23;;;;;;;18.05;10.15;;;;;;;;;;4921394;29;20053;-81
2023/08/30 01:54:53;;;;;;;16.48;9.95;;;;;;;;;;4927711;29;20570;-81
2023/08/30 01:57:23;;;;;;;15.38;9.00;;;;;;;;;;4926872;29;20652;-83
2023/08/30 01:59:49;;;;;;;17.85;9.23;;;;;;;;;;4908803;29;20052;-81
2023/08/30 02:02:16;;;;;;;17.70;9.52;;;;;;;;;;4928687;29;20055;-82
2023/08/30 02:04:43;;;;;;;16.88;9.50;;;;;;;;;;4915978;29;20082;-81
2023/08/30 02:07:16;;;;;;;16.35;9.23;;;;;;;;;;4930807;29;20045;-81
2023/08/30 02:09:46;;;;;;;15.23;8.95;;;;;;;;;;4922772;29;20058;-81
2023/08/30 02:12:14;;;;;;;14.65;8.32;;;;;;;;;;4911779;29;20044;-81
2023/08/30 02:14:45;;;;;;;12.85;8.15;;;;;;;;;;4921454;29;20056;-81
2023/08/30 02:17:13;;;;;;;13.77;8.38;;;;;;;;;;4921229;29;20048;-81
2023/08/30 02:19:45;;;;;;;13.80;7.55;;;;;;;;;;4922191;29;20422;-81
2023/08/30 02:22:17;;;;;;;13.88;8.02;;;;;;;;;;4917373;29;20048;-81
2023/08/30 02:24:44;;;;;;;15.57;8.40;;;;;;;;;;4947953;29;20048;-82
2023/08/30 02:27:11;;;;;;;11.98;7.55;;;;;;;;;;4927622;29;20099;-82
2023/08/30 02:29:39;;;;;;;12.18;6.93;;;;;;;;;;4922771;28;20040;-81
2023/08/30 02:32:06;;;;;;;11.25;6.97;;;;;;;;;;4907419;29;20071;-82
2023/08/30 02:34:33;;;;;;;10.45;6.72;;;;;;;;;;4906819;29;20060;-83
2023/08/30 02:36:59;;;;;;;8.98;6.05;;;;;;;;;;4928364;29;20491;-81
2023/08/30 02:39:26;;;;;;;10.15;6.03;;;;;;;;;;4932117;29;20051;-81
2023/08/30 02:41:56;;;;;;;11.45;6.35;;;;;;;;;;4914901;29;20044;-82
2023/08/30 02:44:22;;;;;;;11.02;5.75;;;;;;;;;;4915843;29;20143;-82
2023/08/30 02:46:49;;;;;;;11.07;6.40;;;;;;;;;;4922585;29;20091;-82
2023/08/30 02:49:16;;;;;;;9.65;5.57;;;;;;;;;;4917456;29;20040;-82
2023/08/30 02:51:43;;;;;;;9.07;5.70;;;;;;;;;;4906078;29;20132;-82
2023/08/30 02:54:12;;;;;;;10.57;5.68;;;;;;;;;;4909711;29;20044;-82
2023/08/30 02:56:40;;;;;;;8.75;5.57;;;;;;;;;;4912531;29;20044;-82
2023/08/30 02:59:06;;;;;;;8.77;5.75;;;;;;;;;;4930207;29;20565;-83
2023/08/30 03:01:33;;;;;;;12.48;5.78;;;;;;;;;;4928720;29;20081;-80
2023/08/30 03:04:00;;;;;;;11.10;6.25;;;;;;;;;;4916142;29;20057;-82
2023/08/30 03:06:26;;;;;;;11.52;7.65;;;;;;;;;;4915530;29;20502;-82
2023/08/30 03:08:54;;;;;;;15.15;8.00;;;;;;;;;;4916122;29;20048;-81
2023/08/30 03:11:22;;;;;;;17.75;9.55;;;;;;;;;;4930556;29;20048;-81
2023/08/30 03:13:53;;;;;;;15.90;8.77;;;;;;;;;;4915913;29;20044;-80
2023/08/30 03:16:20;;;;;;;17.33;10.70;;;;;;;;;;4896529;29;20064;-82
2023/08/30 03:18:48;;;;;;;18.92;10.75;;;;;;;;;;4924015;29;20059;-81
2023/08/30 03:21:15;;;;;;;21.98;11.45;;;;;;;;;;4932769;29;20048;-82
2023/08/30 03:23:42;;;;;;;19.60;11.70;;;;;;;;;;4914399;29;20049;-83
2023/08/30 03:26:12;;;;;;;19.70;11.50;;;;;;;;;;4898007;29;20045;-83
2023/08/30 03:28:40;;;;;;;18.85;11.23;;;;;;;;;;4915177;29;20059;-82
2023/08/30 03:31:19;;;;;;;25.13;12.40;;;;;;;;;;4914774;29;20064;-80
2023/08/30 03:33:47;;;;;;;18.75;11.18;;;;;;;;;;4929399;29;20451;-82
2023/08/30 03:36:15;;;;;;;19.92;11.65;;;;;;;;;;4915744;29;20060;-83
2023/08/30 03:38:43;;;;;;;19.92;12.10;;;;;;;;;;4912348;29;20092;-82
2023/08/30 03:41:10;;;;;;;20.50;11.68;;;;;;;;;;4928779;29;20040;-82
2023/08/30 03:43:38;;;;;;;18.88;11.85;;;;;;;;;;4894110;29;20136;-83
2023/08/30 03:46:05;;;;;;;17.98;10.60;;;;;;;;;;4923030;29;20109;-82
2023/08/30 03:48:31;;;;;;;18.23;11.40;;;;;;;;;;4913631;29;20051;-81
2023/08/30 03:50:58;;;;;;;17.73;10.82;;;;;;;;;;4910339;29;20063;-80
2023/08/30 03:53:26;;;;;;;18.52;10.73;;;;;;;;;;4924580;29;20056;-81
2023/08/30 03:55:52;;;;;;;19.33;11.43;;;;;;;;;;4926682;29;20070;-79
2023/08/30 03:58:19;;;;;;;18.17;10.45;;;;;;;;;;4915379;29;20052;-80
2023/08/30 04:00:46;;;;;;;22.10;10.50;;;;;;;;;;4927524;29;20060;-81
2023/08/30 04:03:14;;;;;;;17.30;10.35;;;;;;;;;;4917545;29;20088;-79
2023/08/30 04:05:41;;;;;;;19.05;11.00;;;;;;;;;;4901374;29;20055;-79
2023/08/30 04:08:08;;;;;;;16.65;10.57;;;;;;;;;;4937061;29;20058;-82
2023/08/30 04:10:39;;;;;;;18.98;10.70;;;;;;;;;;4938206;29;20044;-82
2023/08/30 04:13:08;;;;;;;17.30;10.10;;;;;;;;;;4920492;29;20048;-84
2023/08/30 04:15:36;;;;;;;15.82;9.82;;;;;;;;;;4945771;29;20051;-82
2023/08/30 04:18:03;;;;;;;19.98;9.98;;;;;;;;;;4938512;29;20067;-82
2023/08/30 04:20:30;;;;;;;17.70;9.95;;;;;;;;;;4913646;29;20552;-82
2023/08/30 04:22:57;;;;;;;14.75;10.07;;;;;;;;;;4920404;29;20068;-82
2023/08/30 04:25:24;;;;;;;16.55;10.30;;;;;;;;;;4913457;29;20103;-83
2023/08/30 04:27:51;;;;;;;14.65;9.80;;;;;;;;;;4906046;29;20041;-82
2023/08/30 04:30:19;;;;;;;17.63;9.85;;;;;;;;;;4910752;28;20439;-82
2023/08/30 04:32:45;;;;;;;17.15;9.63;;;;;;;;;;4909641;29;20044;-83
2023/08/30 04:35:12;;;;;;;17.77;10.35;;;;;;;;;;4915362;29;20052;-81
2023/08/30 04:37:42;;;;;;;18.63;10.00;;;;;;;;;;4918454;29;20036;-82
2023/08/30 04:40:09;;;;;;;14.75;9.77;;;;;;;;;;4908548;29;20526;-81
2023/08/30 04:42:36;;;;;;;19.52;10.15;;;;;;;;;;4913728;29;20533;-81
2023/08/30 04:45:05;;;;;;;15.52;9.02;;;;;;;;;;4930117;29;20103;-82
2023/08/30 04:47:32;;;;;;;16.95;9.32;;;;;;;;;;4916121;29;20068;-81
2023/08/30 04:50:02;;;;;;;14.65;9.45;;;;;;;;;;4923389;29;20061;-81
2023/08/30 04:52:28;;;;;;;14.57;8.82;;;;;;;;;;4919550;29;20069;-82
2023/08/30 04:54:56;;;;;;;16.33;8.27;;;;;;;;;;4912166;29;20052;-83
2023/08/30 04:57:25;;;;;;;15.57;8.13;;;;;;;;;;4922408;29;20056;-82
2023/08/30 04:59:52;;;;;;;12.75;7.85;;;;;;;;;;4924932;29;20083;-82
2023/08/30 05:02:19;;;;;;;13.18;7.72;;;;;;;;;;4912553;29;20104;-82
2023/08/30 05:05:06;;;;;;;11.50;7.55;;;;;;;;;;4933291;29;20058;-83
2023/08/30 05:07:32;;;;;;;13.88;8.05;;;;;;;;;;4927702;29;20080;-83
2023/08/30 05:09:59;;;;;;;12.65;7.93;;;;;;;;;;4914493;29;20059;-81
2023/08/30 05:12:26;;;;;;;11.20;7.38;;;;;;;;;;4919536;29;20510;-80
2023/08/30 05:14:52;;;;;;;10.63;6.93;;;;;;;;;;4919743;29;20523;-81
2023/08/30 05:17:19;;;;;;;11.52;7.72;;;;;;;;;;4915430;29;20401;-82
2023/08/30 05:19:46;;;;;;;10.70;6.93;;;;;;;;;;4934475;29;20071;-83
2023/08/30 05:22:13;;;;;;;10.57;6.80;;;;;;;;;;4925794;29;20608;-83
2023/08/30 05:24:39;;;;;;;14.30;7.10;;;;;;;;;;4927577;29;20040;-83
2023/08/30 05:27:07;;;;;;;10.40;6.60;;;;;;;;;;4911081;29;20076;-83
2023/08/30 05:29:38;;;;;;;9.00;6.28;;;;;;;;;;4924620;29;20059;-82
2023/08/30 05:32:05;;;;;;;9.23;6.32;;;;;;;;;;4924577;29;20047;-82
2023/08/30 05:34:50;;;;;;;12.23;6.30;;;;;;;;;;4921317;29;20113;-82
2023/08/30 05:37:27;;;;;;;8.95;6.07;;;;;;;;;;4936401;28;20048;-82
2023/08/30 05:40:19;;;;;;;11.02;5.80;;;;;;;;;;4907590;29;20054;-83
2023/08/30 05:42:46;;;;;;;9.52;5.65;;;;;;;;;;4914091;29;20080;-83
2023/08/30 05:45:13;;;;;;;11.88;6.05;;;;;;;;;;4920601;29;20044;-83
2023/08/30 05:47:40;;;;;;;9.05;5.95;;;;;;;;;;4913224;29;20385;-83
2023/08/30 05:50:07;;;;;;;9.68;5.68;;;;;;;;;;4909711;29;20534;-83
2023/08/30 05:52:33;;;;;;;10.63;5.68;;;;;;;;;;4899276;29;20400;-83
2023/08/30 05:55:00;;;;;;;10.38;5.53;;;;;;;;;;4919046;29;20544;-83
2023/08/30 05:57:33;;;;;;;7.80;5.35;;;;;;;;;;4910048;29;20045;-83
2023/08/30 06:00:00;;;;;;;11.23;4.88;;;;;;;;;;4920919;28;20115;-83
2023/08/30 06:02:27;;;;;;;8.40;5.22;;;;;;;;;;4928755;29;20056;-83
2023/08/30 06:04:53;;;;;;;7.82;4.72;;;;;;;;;;4920767;29;20052;-82
2023/08/30 06:07:20;;;;;;;8.63;5.03;;;;;;;;;;4911176;29;20044;-81
2023/08/30 06:09:47;;;;;;;8.55;4.40;;;;;;;;;;4945013;28;20079;-82
2023/08/30 06:12:13;;;;;;;6.85;4.57;;;;;;;;;;4935865;29;20093;-82
2023/08/30 06:14:40;;;;;;;7.65;4.95;;;;;;;;;;4918633;29;20555;-83
2023/08/30 06:17:06;;;;;;;7.30;4.88;;;;;;;;;;4909819;29;20044;-81
2023/08/30 06:19:36;;;;;;;8.93;4.70;;;;;;;;;;4934081;29;20055;-82
2023/08/30 06:22:02;;;;;;;9.23;4.20;;;;;;;;;;4914326;29;20060;-83
2023/08/30 06:24:29;;;;;;;7.72;4.68;;;;;;;;;;4938674;29;20048;-82
2023/08/30 06:26:59;;;;;;;10.68;4.55;;;;;;;;;;4910414;29;20063;-83
2023/08/30 06:29:26;;;;;;;5.95;4.30;;;;;;;;;;4923355;29;20138;-82
2023/08/30 06:31:52;;;;;;;8.75;4.53;;;;;;;;;;4934749;29;20043;-82
2023/08/30 06:34:19;;;;;;;7.53;4.78;;;;;;;;;;4923397;29;20662;-82
2023/08/30 06:36:46;;;;;;;6.03;3.97;;;;;;;;;;4927782;29;20108;-81
2023/08/30 06:39:13;;;;;;;8.90;4.18;;;;;;;;;;4935198;29;20071;-81
2023/08/30 06:41:39;;;;;;;6.15;3.90;;;;;;;;;;4935583;29;20055;-82
2023/08/30 06:44:06;;;;;;;6.05;3.83;;;;;;;;;;4915905;29;20044;-81
2023/08/30 06:46:32;;;;;;;7.57;3.83;;;;;;;;;;4916797;29;20052;-82
2023/08/30 06:48:59;;;;;;;5.45;3.50;;;;;;;;;;4921590;29;20056;-82
2023/08/30 06:51:26;;;;;;;5.80;3.70;;;;;;;;;;4936351;29;20066;-82
2023/08/30 06:53:55;;;;;;;5.78;3.50;;;;;;;;;;4920118;29;20044;-82
2023/08/30 06:56:21;;;;;;;8.85;3.70;;;;;;;;;;4934058;29;20056;-82
2023/08/30 06:58:48;;;;;;;5.15;3.40;;;;;;;;;;4933047;29;20434;-82
2023/08/30 07:01:15;;;;;;;6.30;3.60;;;;;;;;;;4922802;29;20040;-82
2023/08/30 07:03:42;;;;;;;7.70;3.85;;;;;;;;;;4915937;29;20043;-82
2023/08/30 07:06:08;;;;;;;8.63;3.85;;;;;;;;;;4914234;29;20068;-82
2023/08/30 07:08:35;;;;;;;4.57;3.47;;;;;;;;;;4928118;29;20051;-82
2023/08/30 07:11:02;;;;;;;8.98;3.70;;;;;;;;;;4917480;29;20079;-81
2023/08/30 07:13:28;;;;;;;6.13;3.30;;;;;;;;;;4923873;29;20044;-81
2023/08/30 07:15:55;;;;;;;4.63;3.28;;;;;;;;;;4940073;29;20041;-80
2023/08/30 07:18:22;;;;;;;4.90;3.08;;;;;;;;;;4928978;29;20047;-81
2023/08/30 07:20:48;;;;;;;5.40;3.30;;;;;;;;;;4937927;29;20036;-82
2023/08/30 07:23:15;;;;;;;5.57;3.20;;;;;;;;;;4934418;29;20471;-81
2023/08/30 07:25:42;;;;;;;6.13;3.05;;;;;;;;;;4937756;29;20116;-82
2023/08/30 07:28:08;;;;;;;7.07;2.67;;;;;;;;;;4907998;29;20047;-82
2023/08/30 07:30:36;;;;;;;7.72;3.70;;;;;;;;;;4935393;29;20423;-82
2023/08/30 07:33:03;;;;;;;7.28;3.10;;;;;;;;;;4943905;29;20582;-82
2023/08/30 07:35:33;;;;;;;5.07;3.05;;;;;;;;;;4910410;29;20222;-81
2023/08/30 07:38:00;;;;;;;8.48;3.33;;;;;;;;;;4917064;29;20087;-81
2023/08/30 07:40:28;;;;;;;8.95;4.43;;;;;;;;;;4919948;29;20051;-82
2023/08/30 07:42:55;;;;;;;4.57;3.33;;;;;;;;;;4906553;29;20083;-81
2023/08/30 07:45:25;;;;;;;5.95;3.55;;;;;;;;;;4905640;29;20095;-82
2023/08/30 07:47:52;;;;;;;6.47;3.25;;;;;;;;;;4930198;29;20396;-82
2023/08/30 07:50:18;;;;;;;5.15;3.33;;;;;;;;;;4915487;29;20044;-81
2023/08/30 07:52:45;;;;;;;5.82;3.42;;;;;;;;;;4926265;29;20677;-82
2023/08/30 07:55:12;;;;;;;5.63;3.20;;;;;;;;;;4919888;29;20087;-82
2023/08/30 07:57:39;;;;;;;4.68;3.53;;;;;;;;;;4904732;29;20048;-81
2023/08/30 08:00:08;;;;;;;5.75;3.22;;;;;;;;;;4912579;29;20044;-82
2023/08/30 08:02:41;;;;;;;5.22;3.08;;;;;;;;;;4931568;29;20049;-81
2023/08/30 08:05:08;;;;;;;8.93;3.47;;;;;;;;;;4937076;29;20048;-81
2023/08/30 08:07:37;;;;;;;6.07;3.22;;;;;;;;;;4917552;29;20460;-82
2023/08/30 08:10:05;;;;;;;8.35;2.90;;;;;;;;;;4910366;29;22328;-82
2023/08/30 08:12:32;;;;;;;9.57;3.08;;;;;;;;;;4907607;29;20188;-82
2023/08/30 08:14:59;;;;;;;6.32;3.08;;;;;;;;;;4922741;29;20056;-80
2023/08/30 08:17:26;;;;;;;8.10;2.80;;;;;;;;;;4937051;29;20044;-82
2023/08/30 08:19:53;;;;;;;7.25;3.03;;;;;;;;;;4921016;29;20044;-82
2023/08/30 08:22:19;;;;;;;6.72;3.10;;;;;;;;;;4920031;29;20161;-81
2023/08/30 08:24:47;;;;;;;4.65;2.80;;;;;;;;;;4919721;29;20048;-82
2023/08/30 08:27:14;;;;;;;8.65;2.83;;;;;;;;;;4914924;29;20047;-82
2023/08/30 08:29:40;;;;;;;5.72;2.53;;;;;;;;;;4920502;29;20127;-81
2023/08/30 08:32:08;;;;;;;5.20;3.20;;;;;;;;;;4920811;29;20080;-82
2023/08/30 08:34:35;;;;;;;5.45;2.75;;;;;;;;;;4910058;29;20104;-80
2023/08/30 08:37:01;;;;;;;5.40;2.85;;;;;;;;;;4914417;29;20056;-81
2023/08/30 08:39:29;;;;;;;3.80;2.63;;;;;;;;;;4911551;29;20044;-82
2023/08/30 08:41:58;;;;;;;5.18;2.60;;;;;;;;;;4917748;29;20080;-83
2023/08/30 08:44:26;;;;;;;5.95;2.35;;;;;;;;;;4911251;29;20127;-82
2023/08/30 08:46:53;;;;;;;6.05;2.20;;;;;;;;;;4911029;29;20064;-82
2023/08/30 08:49:19;;;;;;;3.67;2.28;;;;;;;;;;4911300;29;20551;-82
2023/08/30 08:51:46;;;;;;;2.35;1.75;;;;;;;;;;4924571;29;20044;-83
2023/08/30 08:54:13;;;;;;;3.95;2.00;;;;;;;;;;4904888;29;20036;-82
2023/08/30 08:56:40;;;;;;;3.30;1.65;;;;;;;;;;4911070;29;20399;-82
2023/08/30 08:59:08;;;;;;;2.90;1.60;;;;;;;;;;4911373;29;20107;-81
2023/08/30 09:01:36;;;;;;;3.85;2.08;;;;;;;;;;4910793;29;20104;-82
2023/08/30 09:04:04;;;;;;;1.98;1.60;;;;;;;;;;4915958;29;20606;-82
2023/08/30 09:06:31;;;;;;;3.72;1.80;;;;;;;;;;4912181;29;20040;-82
2023/08/30 09:08:58;;;;;;;3.38;1.55;;;;;;;;;;4927278;29;20048;-80
2023/08/30 09:11:25;;;;;;;3.88;1.67;;;;;;;;;;4907858;29;20108;-83
2023/08/30 09:14:11;;;;;;;3.05;1.63;;;;;;;;;;4905804;29;20446;-84
2023/08/30 09:16:38;;;;;;;1.73;1.20;;;;;;;;;;4910177;29;20104;-82
2023/08/30 09:19:05;;;;;;;2.22;1.20;;;;;;;;;;4915093;29;20707;-82
2023/08/30 09:21:34;;;;;;;2.00;1.23;;;;;;;;;;4913849;29;20041;-82
2023/08/30 09:24:02;;;;;;;3.28;1.35;;;;;;;;;;4922213;29;20080;-81
2023/08/30 09:26:31;;;;;;;4.13;1.70;;;;;;;;;;4934768;29;20132;-81
2023/08/30 09:29:03;;;;;;;2.60;1.40;;;;;;;;;;4922274;29;20131;-80
2023/08/30 09:31:33;;;;;;;7.10;1.83;;;;;;;;;;4914203;29;20108;-81
2023/08/30 09:34:01;;;;;;;3.85;1.70;;;;;;;;;;4939577;29;20080;-82
2023/08/30 09:36:38;;;;;;;3.28;1.70;;;;;;;;;;4939150;29;20044;-82
2023/08/30 09:39:14;;;;;;;2.08;1.50;;;;;;;;;;4935670;29;20044;-83
2023/08/30 09:41:41;;;;;;;2.85;1.92;;;;;;;;;;4912811;29;20630;-81
2023/08/30 09:44:16;;;;;;;5.95;2.20;;;;;;;;;;4935585;29;20048;-79
2023/08/30 09:46:44;;;;;;;2.42;1.95;;;;;;;;;;4905347;29;20041;-82
2023/08/30 09:49:18;;;;;;;;;;;;;;;;;;4924309;29;20047;-82
2023/08/30 09:51:46;;;;;;;4.13;2.38;;;;;;;;;;4904642;29;20253;-82
2023/08/30 09:54:17;;;;;;;2.50;1.73;;;;;;;;;;4920780;29;20044;-82
2023/08/30 09:56:47;;;;;;;2.47;1.45;;;;;;;;;;4926131;29;20479;-81
2023/08/30 09:59:14;;;;;;;3.55;1.85;;;;;;;;;;4931182;29;20072;-82
2023/08/30 10:01:41;;;;;;;2.70;1.90;;;;;;;;;;4903030;29;20075;-82
2023/08/30 10:04:09;;;;;;;3.47;2.20;;;;;;;;;;4918408;29;20044;-80
2023/08/30 10:06:37;;;;;;;3.42;1.92;;;;;;;;;;4918346;29;20055;-83
2023/08/30 10:09:07;;;;;;;5.45;1.77;;;;;;;;;;4913951;29;20415;-80
2023/08/30 10:11:35;;;;;;;3.03;1.83;;;;;;;;;;4894900;29;20136;-81
2023/08/30 10:14:04;;;;;;;2.08;1.40;;;;;;;;;;4911963;29;20052;-81
2023/08/30 10:16:35;;;;;;;4.25;1.70;;;;;;;;;;4902575;29;20357;-81
2023/08/30 10:19:04;;;;;;;3.60;1.80;;;;;;;;;;4911528;29;20455;-80
2023/08/30 10:21:31;;;;;;;2.20;1.35;;;;;;;;;;4914247;29;20048;-81
2023/08/30 10:23:58;;;;;;;1.65;1.13;;;;;;;;;;4927875;29;20051;-80
2023/08/30 10:26:27;;;;;;;2.20;1.40;;;;;;;;;;4918111;29;20051;-81
2023/08/30 10:28:55;;;;;;;3.67;1.33;;;;;;;;;;4912064;29;20056;-80
2023/08/30 10:31:21;;;;;;;3.28;1.10;;;;;;;;;;4911988;29;20529;-81
2023/08/30 10:33:49;;;;;;;4.15;1.10;;;;;;;;;;4913048;29;20710;-80
2023/08/30 10:36:23;;;;;;;2.85;1.55;;;;;;;;;;4909338;29;20100;-83
2023/08/30 10:38:53;;;;;;;2.97;1.48;;;;;;;;;;4907618;29;20432;-81
2023/08/30 10:41:26;;;;;;;3.20;1.90;;;;;;;;;;4928522;29;20111;-81
2023/08/30 10:43:55;;;;;;;2.67;1.50;;;;;;;;;;4927286;29;20044;-83
2023/08/30 10:46:32;;;;;;;2.95;1.45;;;;;;;;;;4912104;29;20079;-82
2023/08/30 10:49:09;;;;;;;4.72;1.70;;;;;;;;;;4911567;29;20067;-82
2023/08/30 10:51:39;;;;;;;3.53;1.10;;;;;;;;;;4900906;29;20072;-81
2023/08/30 10:54:16;;;;;;;3.17;1.10;;;;;;;;;;4906307;29;20056;-81
2023/08/30 10:57:02;;;;;;;1.83;1.00;;;;;;;;;;4922093;29;20092;-81
2023/08/30 10:59:31;;;;;;;1.60;0.90;;;;;;;;;;4909707;29;20076;-81
2023/08/30 11:02:01;;;;;;;1.90;0.90;;;;;;;;;;4918490;29;20099;-81
2023/08/30 11:04:27;;;;;;;2.05;0.88;;;;;;;;;;4901030;29;20818;-81
2023/08/30 11:06:54;;;;;;;1.15;0.75;;;;;;;;;;4904442;29;20041;-82
2023/08/30 11:09:24;;;;;;;1.77;0.82;;;;;;;;;;4914264;29;20056;-81
2023/08/30 11:11:51;;;;;;;2.17;0.98;;;;;;;;;;4916238;29;20068;-82
2023/08/30 11:14:18;;;;;;;2.63;0.77;;;;;;;;;;4911423;29;20051;-81
2023/08/30 11:16:45;;;;;;;3.10;1.10;;;;;;;;;;4913196;29;20127;-82
2023/08/30 11:19:12;;;;;;;1.20;0.88;;;;;;;;;;4922349;29;20107;-82
2023/08/30 11:21:40;;;;;;;1.50;1.00;;;;;;;;;;4915232;29;20052;-81
2023/08/30 11:24:07;;;;;;;1.73;0.90;;;;;;;;;;4928559;29;20058;-82
2023/08/30 11:26:34;;;;;;;1.17;0.85;;;;;;;;;;4898804;29;20052;-83
2023/08/30 11:29:04;;;;;;;1.17;0.70;;;;;;;;;;4929398;29;21318;-83
2023/08/30 11:31:31;;;;;;;1.85;1.10;;;;;;;;;;4935100;29;20051;-81
2023/08/30 11:33:58;;;;;;;1.73;1.00;;;;;;;;;;4913756;29;20056;-80
2023/08/30 11:36:29;;;;;;;2.72;1.05;;;;;;;;;;4909597;29;20052;-81
2023/08/30 11:38:56;;;;;;;2.33;0.90;;;;;;;;;;4910183;29;20474;-81
2023/08/30 11:41:23;;;;;;;1.70;0.88;;;;;;;;;;4914699;29;20591;-81
2023/08/30 11:43:51;;;;;;;4.13;1.10;;;;;;;;;;4912019;29;20055;-81
2023/08/30 11:46:18;;;;;;;1.50;0.93;;;;;;;;;;4913400;29;20513;-82
2023/08/30 11:48:45;;;;;;;2.13;0.90;;;;;;;;;;4917093;29;20143;-81
2023/08/30 11:51:13;;;;;;;2.55;1.00;;;;;;;;;;4907678;29;20072;-80
2023/08/30 11:53:40;;;;;;;3.72;1.08;;;;;;;;;;4909408;29;20052;-80
2023/08/30 11:56:07;;;;;;;4.30;0.90;;;;;;;;;;4909536;29;20056;-79
2023/08/30 11:58:35;;;;;;;3.92;0.88;;;;;;;;;;4890857;29;20055;-80
2023/08/30 12:01:02;;;;;;;1.70;1.05;;;;;;;;;;4910878;29;20091;-81
2023/08/30 12:03:29;;;;;;;4.25;1.00;;;;;;;;;;4925866;29;20040;-80
2023/08/30 12:05:57;;;;;;;2.40;0.70;;;;;;;;;;4907705;29;20052;-78
2023/08/30 12:08:25;;;;;;;2.78;1.05;;;;;;;;;;4908650;29;20078;-80
2023/08/30 12:10:59;;;;;;;1.15;0.80;;;;;;;;;;4904011;29;20465;-82
2023/08/30 12:13:26;;;;;;;2.55;0.98;;;;;;;;;;4907456;29;20072;-82
2023/08/30 12:15:53;;;;;;;3.38;0.95;;;;;;;;;;4926195;29;20044;-81
2023/08/30 12:18:23;;;;;;;2.75;1.10;;;;;;;;;;4916177;29;20036;-82
2023/08/30 12:21:03;;;;;;;2.33;0.90;;;;;;;;;;4927824;29;20091;-81
2023/08/30 12:23:31;;;;;;;1.70;0.93;;;;;;;;;;4908835;29;20418;-81
2023/08/30 12:26:00;;;;;;;1.55;0.80;;;;;;;;;;4912619;29;20052;-81
2023/08/30 12:28:28;;;;;;;2.03;0.85;;;;;;;;;;4922036;29;20059;-81
2023/08/30 12:30:55;;;;;;;1.55;1.00;;;;;;;;;;4915531;29;20579;-80
2023/08/30 12:33:21;;;;;;;5.20;1.27;;;;;;;;;;4938154;29;20914;-81
2023/08/30 12:35:48;;;;;;;2.38;0.90;;;;;;;;;;4911473;29;20052;-81
2023/08/30 12:38:17;;;;;;;1.40;1.00;;;;;;;;;;4902487;29;20132;-80
2023/08/30 12:40:47;;;;;;;1.90;0.95;;;;;;;;;;4925045;29;20040;-80
2023/08/30 12:43:14;;;;;;;1.58;1.00;;;;;;;;;;4916972;29;20059;-80
2023/08/30 12:45:41;;;;;;;2.88;1.08;;;;;;;;;;4918262;29;20626;-81
2023/08/30 12:48:08;;;;;;;1.58;0.93;;;;;;;;;;4905877;29;20048;-80
2023/08/30 12:50:36;;;;;;;2.10;1.00;;;;;;;;;;4901107;29;20207;-79
2023/08/30 12:53:03;;;;;;;1.38;0.90;;;;;;;;;;4893382;29;20060;-80
2023/08/30 12:55:29;;;;;;;2.15;1.00;;;;;;;;;;4912388;29;20561;-81
2023/08/30 12:57:57;;;;;;;1.33;0.90;;;;;;;;;;4909848;29;20048;-80
2023/08/30 13:00:24;;;;;;;1.55;1.00;;;;;;;;;;4913785;29;20060;-81
2023/08/30 13:02:51;;;;;;;2.50;0.98;;;;;;;;;;4913791;29;20060;-81
2023/08/30 13:05:18;;;;;;;3.78;1.10;;;;;;;;;;4934597;29;20052;-82
2023/08/30 13:07:45;;;;;;;2.28;0.90;;;;;;;;;;4914890;29;20076;-80
2023/08/30 13:10:12;;;;;;;1.58;0.85;;;;;;;;;;4917259;29;20045;-82
2023/08/30 13:12:39;;;;;;;2.22;1.00;;;;;;;;;;4919789;29;20040;-79
2023/08/30 13:15:09;;;;;;;1.52;0.90;;;;;;;;;;4915906;29;20052;-80
2023/08/30 13:17:36;;;;;;;1.65;0.80;;;;;;;;;;4929500;29;20115;-81
2023/08/30 13:20:03;;;;;;;2.75;0.90;;;;;;;;;;4913009;29;20060;-82
2023/08/30 13:22:29;;;;;;;2.75;1.00;;;;;;;;;;4912457;29;20096;-81
2023/08/30 13:24:56;;;;;;;1.95;0.90;;;;;;;;;;4908836;29;20061;-81
2023/08/30 13:27:23;;;;;;;4.90;0.85;;;;;;;;;;4918141;29;20048;-81
2023/08/30 13:29:50;;;;;;;1.58;0.77;;;;;;;;;;4912150;29;20044;-81
2023/08/30 13:32:17;;;;;;;4.60;1.00;;;;;;;;;;4926738;28;20045;-80
2023/08/30 13:34:45;;;;;;;1.70;0.88;;;;;;;;;;4913963;29;20104;-80
2023/08/30 13:37:13;;;;;;;1.50;0.73;;;;;;;;;;4907410;29;20123;-77
2023/08/30 13:39:39;;;;;;;1.33;0.85;;;;;;;;;;4909922;29;20211;-75
2023/08/30 13:42:07;;;;;;;2.05;0.80;;;;;;;;;;4922408;29;20056;-78
2023/08/30 13:44:37;;;;;;;3.95;0.98;;;;;;;;;;4927810;29;23239;-80
2023/08/30 13:47:04;;;;;;;2.30;1.05;;;;;;;;;;4910675;29;20734;-79
2023/08/30 13:49:31;;;;;;;1.67;0.70;;;;;;;;;;4897358;29;20064;-79
2023/08/30 13:51:58;;;;;;;1.52;1.10;;;;;;;;;;4912090;29;20052;-80
2023/08/30 13:54:25;;;;;;;2.13;0.85;;;;;;;;;;4915525;29;20068;-81
2023/08/30 13:56:51;;;;;;;3.63;1.15;;;;;;;;;;4916582;29;20055;-80
2023/08/30 13:59:18;;;;;;;1.30;0.95;;;;;;;;;;4921247;29;20061;-80
2023/08/30 14:01:45;;;;;;;3.17;1.10;;;;;;;;;;4930103;29;20411;-80
2023/08/30 14:04:11;;;;;;;1.15;0.70;;;;;;;;;;4913102;29;20502;-80
2023/08/30 14:06:38;;;;;;;1.13;0.80;;;;;;;;;;4911147;29;20048;-79
2023/08/30 14:09:08;;;;;;;1.30;0.88;;;;;;;;;;4912728;29;20048;-79
2023/08/30 14:11:35;;;;;;;1.38;0.65;;;;;;;;;;4927524;29;20048;-80
2023/08/30 14:14:02;;;;;;;1.25;0.95;;;;;;;;;;4930191;28;20056;-80
2023/08/30 14:16:29;;;;;;;1.35;0.77;;;;;;;;;;4930748;29;20064;-81
2023/08/30 14:18:59;;;;;;;2.65;0.90;;;;;;;;;;4910224;29;20064;-80
2023/08/30 14:21:27;;;;;;;2.88;1.00;;;;;;;;;;4925282;29;20121;-80
2023/08/30 14:23:54;;;;;;;1.40;0.90;;;;;;;;;;4912930;29;20048;-80
2023/08/30 14:26:20;;;;;;;2.28;0.98;;;;;;;;;;4891536;29;20056;-81
2023/08/30 14:28:47;;;;;;;1.85;1.00;;;;;;;;;;4932486;29;20072;-81
2023/08/30 14:31:14;;;;;;;2.10;0.90;;;;;;;;;;4907133;29;20048;-81
2023/08/30 14:33:47;;;;;;;3.15;0.80;;;;;;;;;;4933810;29;20051;-80
2023/08/30 14:36:15;;;;;;;2.55;0.80;;;;;;;;;;4905235;29;21454;-80
2023/08/30 14:38:42;;;;;;;1.92;0.90;;;;;;;;;;4904865;29;20052;-81
2023/08/30 14:41:09;;;;;;;1.50;1.00;;;;;;;;;;4922052;29;20064;-81
2023/08/30 14:43:36;;;;;;;2.10;0.90;;;;;;;;;;4902266;29;20116;-80